SBI5367 UNBB-UNBG
Flight info
| Callsign | SBI5367 |
|---|---|
| Flight time | 0h 25m |
| Altitude | 23000 |
| Route | INBOK B206 KUDEB |
| Aircraft | A320/M-SDE3FGHIRWY/LB1 |
Departure
| Time | 2026-05-09 08:32 |
|---|---|
| Airport | Barnaul Gherman Titov International Airport (UNBB) |
Arrival
| Time | 2026-05-09 08:58 |
|---|---|
| Airport | Gorno-Altaysk Airport (UNBG) |
| Time | Latitude | Longitude | Altitude | Speed | Heading |
|---|---|---|---|---|---|
| 2026-05-09 08:28 | 53.36377 | 83.55174 | 841 ft | 0 kts | 68° |
| 2026-05-09 08:29 | 53.36388 | 83.55209 | 836 ft | 7 kts | 54° |
| 2026-05-09 08:30 | 53.36448 | 83.55237 | 840 ft | 11 kts | 33° |
| 2026-05-09 08:30 | 53.36490 | 83.55378 | 836 ft | 17 kts | 67° |
| 2026-05-09 08:30 | 53.36546 | 83.55606 | 834 ft | 24 kts | 67° |
| 2026-05-09 08:30 | 53.36621 | 83.55902 | 836 ft | 31 kts | 67° |
| 2026-05-09 08:31 | 53.36722 | 83.55992 | 843 ft | 19 kts | 342° |
| 2026-05-09 08:31 | 53.36798 | 83.55904 | 830 ft | 13 kts | 276° |
| 2026-05-09 08:31 | 53.36789 | 83.55848 | 839 ft | 4 kts | 249° |
| 2026-05-09 08:31 | 53.36703 | 83.55507 | 836 ft | 70 kts | 247° |
| 2026-05-09 08:32 | 53.36426 | 83.54386 | 835 ft | 135 kts | 248° |
| 2026-05-09 08:32 | 53.35994 | 83.52732 | 1087 ft | 163 kts | 245° |
| 2026-05-09 08:32 | 53.35694 | 83.48993 | 2326 ft | 188 kts | 298° |
| 2026-05-09 08:33 | 53.36786 | 83.47570 | 2680 ft | 219 kts | 345° |
| 2026-05-09 08:33 | 53.38358 | 83.47749 | 3051 ft | 243 kts | 26° |
| 2026-05-09 08:33 | 53.39650 | 83.49736 | 3481 ft | 264 kts | 64° |
| 2026-05-09 08:33 | 53.40208 | 83.52726 | 4196 ft | 275 kts | 83° |
| 2026-05-09 08:34 | 53.40430 | 83.55942 | 5099 ft | 281 kts | 87° |
| 2026-05-09 08:34 | 53.40581 | 83.59244 | 5998 ft | 288 kts | 86° |
| 2026-05-09 08:34 | 53.40770 | 83.62620 | 6870 ft | 294 kts | 85° |
| 2026-05-09 08:34 | 53.41030 | 83.66047 | 7727 ft | 300 kts | 82° |
| 2026-05-09 08:35 | 53.41360 | 83.69534 | 8620 ft | 305 kts | 81° |
| 2026-05-09 08:35 | 53.41742 | 83.73081 | 9502 ft | 311 kts | 80° |
| 2026-05-09 08:35 | 53.42152 | 83.76689 | 10157 ft | 325 kts | 79° |
| 2026-05-09 08:35 | 53.42478 | 83.80567 | 10463 ft | 348 kts | 91° |
| 2026-05-09 08:36 | 53.42028 | 83.84606 | 10931 ft | 358 kts | 115° |
| 2026-05-09 08:36 | 53.40710 | 83.88121 | 11650 ft | 357 kts | 136° |
| 2026-05-09 08:36 | 53.39023 | 83.91214 | 12422 ft | 364 kts | 131° |
| 2026-05-09 08:36 | 53.37674 | 83.94871 | 13196 ft | 372 kts | 121° |
| 2026-05-09 08:37 | 53.36464 | 83.98737 | 13923 ft | 377 kts | 120° |
| 2026-05-09 08:37 | 53.35276 | 84.02686 | 14595 ft | 382 kts | 120° |
| 2026-05-09 08:37 | 53.34097 | 84.06702 | 15268 ft | 387 kts | 119° |
| 2026-05-09 08:37 | 53.32923 | 84.10765 | 15959 ft | 391 kts | 119° |
| 2026-05-09 08:38 | 53.31738 | 84.14882 | 16629 ft | 395 kts | 118° |
| 2026-05-09 08:38 | 53.30534 | 84.19048 | 17298 ft | 399 kts | 119° |
| 2026-05-09 08:38 | 53.29313 | 84.23228 | 17950 ft | 403 kts | 120° |
| 2026-05-09 08:38 | 53.27825 | 84.27264 | 18527 ft | 403 kts | 131° |
| 2026-05-09 08:39 | 53.25956 | 84.30754 | 19074 ft | 402 kts | 142° |
| 2026-05-09 08:39 | 53.23822 | 84.33762 | 19625 ft | 404 kts | 145° |
| 2026-05-09 08:39 | 53.21643 | 84.36762 | 20166 ft | 408 kts | 145° |
| 2026-05-09 08:39 | 53.19444 | 84.39797 | 20697 ft | 412 kts | 145° |
| 2026-05-09 08:40 | 53.17225 | 84.42865 | 21226 ft | 416 kts | 145° |
| 2026-05-09 08:40 | 53.14985 | 84.45964 | 21726 ft | 421 kts | 145° |
| 2026-05-09 08:40 | 53.12723 | 84.49093 | 22249 ft | 425 kts | 145° |
| 2026-05-09 08:40 | 53.10440 | 84.52249 | 22706 ft | 429 kts | 145° |
| 2026-05-09 08:41 | 53.08139 | 84.55419 | 22830 ft | 429 kts | 145° |
| 2026-05-09 08:41 | 53.05843 | 84.58577 | 22862 ft | 428 kts | 145° |
| 2026-05-09 08:41 | 53.03551 | 84.61725 | 22858 ft | 427 kts | 145° |
| 2026-05-09 08:41 | 53.01257 | 84.64866 | 22850 ft | 427 kts | 145° |
| 2026-05-09 08:42 | 52.98962 | 84.68006 | 22851 ft | 427 kts | 145° |
| 2026-05-09 08:42 | 52.96672 | 84.71138 | 22851 ft | 428 kts | 145° |
| 2026-05-09 08:42 | 52.94372 | 84.74275 | 22855 ft | 428 kts | 145° |
| 2026-05-09 08:42 | 52.92073 | 84.77406 | 22853 ft | 428 kts | 145° |
| 2026-05-09 08:43 | 52.89775 | 84.80539 | 22854 ft | 428 kts | 145° |
| 2026-05-09 08:43 | 52.87446 | 84.83710 | 22808 ft | 426 kts | 146° |
| 2026-05-09 08:43 | 52.85201 | 84.86762 | 22473 ft | 408 kts | 146° |
| 2026-05-09 08:43 | 52.83023 | 84.89719 | 21969 ft | 403 kts | 146° |
| 2026-05-09 08:44 | 52.80857 | 84.92646 | 21487 ft | 401 kts | 146° |
| 2026-05-09 08:44 | 52.78705 | 84.95550 | 20977 ft | 398 kts | 146° |
| 2026-05-09 08:44 | 52.76562 | 84.98431 | 20467 ft | 396 kts | 146° |
| 2026-05-09 08:44 | 52.74430 | 85.01295 | 19944 ft | 395 kts | 146° |
| 2026-05-09 08:45 | 52.72302 | 85.04149 | 19437 ft | 394 kts | 146° |
| 2026-05-09 08:45 | 52.70179 | 85.06992 | 18917 ft | 393 kts | 146° |
| 2026-05-09 08:45 | 52.68082 | 85.09805 | 18400 ft | 382 kts | 146° |
| 2026-05-09 08:45 | 52.66032 | 85.12555 | 17870 ft | 380 kts | 146° |
| 2026-05-09 08:46 | 52.63981 | 85.15296 | 17353 ft | 379 kts | 146° |
| 2026-05-09 08:46 | 52.61935 | 85.18025 | 16847 ft | 378 kts | 146° |
| 2026-05-09 08:46 | 52.59917 | 85.20728 | 16360 ft | 370 kts | 146° |
| 2026-05-09 08:46 | 52.57925 | 85.23390 | 15880 ft | 368 kts | 146° |
| 2026-05-09 08:47 | 52.55936 | 85.26039 | 15401 ft | 367 kts | 146° |
| 2026-05-09 08:47 | 52.53974 | 85.28650 | 14928 ft | 357 kts | 146° |
| 2026-05-09 08:47 | 52.52077 | 85.31179 | 14471 ft | 349 kts | 146° |
| 2026-05-09 08:47 | 52.50187 | 85.33687 | 14001 ft | 350 kts | 146° |
| 2026-05-09 08:48 | 52.48266 | 85.36233 | 13524 ft | 351 kts | 145° |
| 2026-05-09 08:48 | 52.46423 | 85.38780 | 13036 ft | 353 kts | 140° |
| 2026-05-09 08:48 | 52.44679 | 85.41679 | 12569 ft | 352 kts | 139° |
| 2026-05-09 08:48 | 52.42968 | 85.44521 | 12112 ft | 350 kts | 139° |
| 2026-05-09 08:49 | 52.41256 | 85.47355 | 11642 ft | 349 kts | 139° |
| 2026-05-09 08:49 | 52.39552 | 85.50169 | 11168 ft | 342 kts | 139° |
| 2026-05-09 08:49 | 52.37887 | 85.52919 | 10709 ft | 341 kts | 139° |
| 2026-05-09 08:49 | 52.36217 | 85.55668 | 10247 ft | 340 kts | 139° |
| 2026-05-09 08:50 | 52.34570 | 85.58381 | 10066 ft | 330 kts | 139° |
| 2026-05-09 08:50 | 52.33000 | 85.60971 | 9812 ft | 313 kts | 139° |
| 2026-05-09 08:50 | 52.31476 | 85.63482 | 9509 ft | 308 kts | 139° |
| 2026-05-09 08:50 | 52.29970 | 85.65950 | 9322 ft | 307 kts | 139° |
| 2026-05-09 08:51 | 52.28454 | 85.68431 | 8754 ft | 306 kts | 139° |
| 2026-05-09 08:51 | 52.26957 | 85.70881 | 8061 ft | 304 kts | 139° |
| 2026-05-09 08:51 | 52.25477 | 85.73298 | 7418 ft | 299 kts | 138° |
| 2026-05-09 08:51 | 52.24014 | 85.75682 | 6827 ft | 294 kts | 138° |
| 2026-05-09 08:52 | 52.22569 | 85.78036 | 6155 ft | 293 kts | 138° |
| 2026-05-09 08:52 | 52.21138 | 85.80371 | 5530 ft | 289 kts | 138° |
| 2026-05-09 08:52 | 52.19815 | 85.82668 | 5381 ft | 267 kts | 130° |
| 2026-05-09 08:52 | 52.19160 | 85.84345 | 5350 ft | 253 kts | 119° |
| 2026-05-09 08:53 | 52.18431 | 85.86865 | 5287 ft | 244 kts | 118° |
| 2026-05-09 08:53 | 52.17710 | 85.89349 | 5214 ft | 242 kts | 118° |
| 2026-05-09 08:53 | 52.16987 | 85.91823 | 5109 ft | 242 kts | 118° |
| 2026-05-09 08:53 | 52.16270 | 85.94222 | 4990 ft | 227 kts | 123° |
| 2026-05-09 08:54 | 52.15223 | 85.95938 | 4846 ft | 207 kts | 159° |
| 2026-05-09 08:54 | 52.13869 | 85.96402 | 4694 ft | 197 kts | 191° |
| 2026-05-09 08:54 | 52.12594 | 85.95721 | 4463 ft | 193 kts | 209° |
| 2026-05-09 08:54 | 52.11378 | 85.94775 | 4187 ft | 193 kts | 209° |
| 2026-05-09 08:55 | 52.10173 | 85.93840 | 3922 ft | 192 kts | 209° |
| 2026-05-09 08:55 | 52.08961 | 85.92905 | 3630 ft | 193 kts | 209° |
| 2026-05-09 08:55 | 52.07740 | 85.91962 | 3358 ft | 196 kts | 208° |
| 2026-05-09 08:55 | 52.06478 | 85.90991 | 3050 ft | 197 kts | 208° |
| 2026-05-09 08:56 | 52.05263 | 85.90057 | 2791 ft | 191 kts | 208° |
| 2026-05-09 08:56 | 52.04072 | 85.89142 | 2508 ft | 188 kts | 208° |
| 2026-05-09 08:56 | 52.02911 | 85.88250 | 2229 ft | 180 kts | 207° |
| 2026-05-09 08:56 | 52.01819 | 85.87413 | 1978 ft | 166 kts | 207° |
| 2026-05-09 08:57 | 52.00809 | 85.86638 | 1721 ft | 156 kts | 208° |
| 2026-05-09 08:57 | 51.99850 | 85.85902 | 1482 ft | 149 kts | 208° |
| 2026-05-09 08:57 | 51.98929 | 85.85191 | 1277 ft | 145 kts | 206° |
| 2026-05-09 08:57 | 51.98017 | 85.84495 | 1040 ft | 143 kts | 207° |
| 2026-05-09 08:58 | 51.97202 | 85.83868 | 977 ft | 97 kts | 205° |
| 2026-05-09 08:58 | 51.96860 | 85.83605 | 981 ft | 25 kts | 205° |
| 2026-05-09 08:58 | 51.96791 | 85.83663 | 976 ft | 16 kts | 91° |
| 2026-05-09 08:58 | 51.96790 | 85.83849 | 976 ft | 13 kts | 107° |
| 2026-05-09 08:59 | 51.96784 | 85.83995 | 978 ft | 14 kts | 40° |
| 2026-05-09 08:59 | 51.96872 | 85.84055 | 978 ft | 9 kts | 355° |
| 2026-05-09 08:59 | 51.96888 | 85.84019 | 975 ft | 0 kts | 298° |